sensor_id;sensor_type;location;lat;lon;timestamp;P1;durP1;ratioP1;P2;durP2;ratioP2
30149;SDS011;16962;48.646;9.026;2023-07-16T00:02:37;6.93;;;5.78;;
30149;SDS011;16962;48.646;9.026;2023-07-16T00:05:25;9.50;;;6.03;;
30149;SDS011;16962;48.646;9.026;2023-07-16T00:08:12;6.43;;;4.88;;
30149;SDS011;16962;48.646;9.026;2023-07-16T00:11:00;6.10;;;4.50;;
30149;SDS011;16962;48.646;9.026;2023-07-16T00:13:47;5.97;;;4.57;;
30149;SDS011;16962;48.646;9.026;2023-07-16T00:16:35;5.55;;;4.22;;
30149;SDS011;16962;48.646;9.026;2023-07-16T00:19:23;6.72;;;3.67;;
30149;SDS011;16962;48.646;9.026;2023-07-16T00:22:10;3.90;;;3.53;;
30149;SDS011;16962;48.646;9.026;2023-07-16T00:24:57;3.40;;;2.28;;
30149;SDS011;16962;48.646;9.026;2023-07-16T00:27:45;2.53;;;2.10;;
30149;SDS011;16962;48.646;9.026;2023-07-16T00:30:33;3.83;;;2.17;;
30149;SDS011;16962;48.646;9.026;2023-07-16T00:33:23;4.53;;;2.33;;
30149;SDS011;16962;48.646;9.026;2023-07-16T00:36:11;3.33;;;2.45;;
30149;SDS011;16962;48.646;9.026;2023-07-16T00:38:58;5.88;;;1.95;;
30149;SDS011;16962;48.646;9.026;2023-07-16T00:41:45;2.83;;;2.00;;
30149;SDS011;16962;48.646;9.026;2023-07-16T00:44:33;2.60;;;2.40;;
30149;SDS011;16962;48.646;9.026;2023-07-16T00:47:20;1.90;;;1.80;;
30149;SDS011;16962;48.646;9.026;2023-07-16T00:50:09;3.92;;;2.00;;
30149;SDS011;16962;48.646;9.026;2023-07-16T00:53:00;1.73;;;1.63;;
30149;SDS011;16962;48.646;9.026;2023-07-16T00:55:48;3.15;;;2.08;;
30149;SDS011;16962;48.646;9.026;2023-07-16T00:58:35;2.58;;;1.77;;
30149;SDS011;16962;48.646;9.026;2023-07-16T01:01:25;4.78;;;2.40;;
30149;SDS011;16962;48.646;9.026;2023-07-16T01:04:13;5.35;;;2.60;;
30149;SDS011;16962;48.646;9.026;2023-07-16T01:07:04;2.45;;;2.08;;
30149;SDS011;16962;48.646;9.026;2023-07-16T01:09:55;3.85;;;2.10;;
30149;SDS011;16962;48.646;9.026;2023-07-16T01:12:43;3.70;;;2.00;;
30149;SDS011;16962;48.646;9.026;2023-07-16T01:15:31;4.75;;;1.98;;
30149;SDS011;16962;48.646;9.026;2023-07-16T01:18:18;2.72;;;1.83;;
30149;SDS011;16962;48.646;9.026;2023-07-16T01:21:07;3.40;;;1.70;;
30149;SDS011;16962;48.646;9.026;2023-07-16T01:30:14;2.65;;;1.60;;
30149;SDS011;16962;48.646;9.026;2023-07-16T01:33:03;2.55;;;1.90;;
30149;SDS011;16962;48.646;9.026;2023-07-16T01:35:51;2.75;;;1.40;;
30149;SDS011;16962;48.646;9.026;2023-07-16T01:38:39;3.95;;;1.45;;
30149;SDS011;16962;48.646;9.026;2023-07-16T01:41:27;4.55;;;1.40;;
30149;SDS011;16962;48.646;9.026;2023-07-16T01:44:14;3.55;;;1.75;;
30149;SDS011;16962;48.646;9.026;2023-07-16T01:49:56;3.20;;;1.60;;
30149;SDS011;16962;48.646;9.026;2023-07-16T01:52:43;2.92;;;1.65;;
30149;SDS011;16962;48.646;9.026;2023-07-16T01:55:31;2.28;;;1.50;;
30149;SDS011;16962;48.646;9.026;2023-07-16T01:58:18;1.70;;;1.25;;
30149;SDS011;16962;48.646;9.026;2023-07-16T02:01:05;1.90;;;1.50;;
30149;SDS011;16962;48.646;9.026;2023-07-16T02:03:54;1.42;;;1.33;;
30149;SDS011;16962;48.646;9.026;2023-07-16T02:06:42;3.58;;;1.70;;
30149;SDS011;16962;48.646;9.026;2023-07-16T02:09:29;4.68;;;1.20;;
30149;SDS011;16962;48.646;9.026;2023-07-16T02:12:16;3.08;;;1.50;;
30149;SDS011;16962;48.646;9.026;2023-07-16T02:15:06;3.47;;;1.88;;
30149;SDS011;16962;48.646;9.026;2023-07-16T02:17:53;2.67;;;1.90;;
30149;SDS011;16962;48.646;9.026;2023-07-16T02:20:40;2.00;;;1.80;;
30149;SDS011;16962;48.646;9.026;2023-07-16T02:23:29;5.35;;;1.65;;
30149;SDS011;16962;48.646;9.026;2023-07-16T02:26:16;4.05;;;2.00;;
30149;SDS011;16962;48.646;9.026;2023-07-16T02:29:04;4.53;;;1.88;;
30149;SDS011;16962;48.646;9.026;2023-07-16T02:31:55;3.35;;;1.73;;
30149;SDS011;16962;48.646;9.026;2023-07-16T02:34:42;4.40;;;2.10;;
30149;SDS011;16962;48.646;9.026;2023-07-16T02:37:29;2.58;;;1.95;;
30149;SDS011;16962;48.646;9.026;2023-07-16T02:40:16;4.05;;;1.88;;
30149;SDS011;16962;48.646;9.026;2023-07-16T02:43:03;7.10;;;2.00;;
30149;SDS011;16962;48.646;9.026;2023-07-16T02:45:51;4.68;;;2.08;;
30149;SDS011;16962;48.646;9.026;2023-07-16T02:48:38;3.00;;;1.73;;
30149;SDS011;16962;48.646;9.026;2023-07-16T02:51:25;4.70;;;2.33;;
30149;SDS011;16962;48.646;9.026;2023-07-16T02:54:13;6.07;;;1.90;;
30149;SDS011;16962;48.646;9.026;2023-07-16T02:57:02;5.30;;;1.92;;
30149;SDS011;16962;48.646;9.026;2023-07-16T02:59:52;2.33;;;2.00;;
30149;SDS011;16962;48.646;9.026;2023-07-16T03:02:39;4.55;;;1.98;;
30149;SDS011;16962;48.646;9.026;2023-07-16T03:05:29;5.90;;;2.13;;
30149;SDS011;16962;48.646;9.026;2023-07-16T03:08:17;2.67;;;2.30;;
30149;SDS011;16962;48.646;9.026;2023-07-16T03:11:06;2.83;;;2.22;;
30149;SDS011;16962;48.646;9.026;2023-07-16T03:13:54;6.07;;;2.63;;
30149;SDS011;16962;48.646;9.026;2023-07-16T03:16:41;5.13;;;2.78;;
30149;SDS011;16962;48.646;9.026;2023-07-16T03:19:28;8.85;;;2.25;;
30149;SDS011;16962;48.646;9.026;2023-07-16T03:22:15;3.35;;;2.20;;
30149;SDS011;16962;48.646;9.026;2023-07-16T03:25:03;4.90;;;2.28;;
30149;SDS011;16962;48.646;9.026;2023-07-16T03:27:50;9.02;;;2.30;;
30149;SDS011;16962;48.646;9.026;2023-07-16T03:30:44;4.32;;;2.35;;
30149;SDS011;16962;48.646;9.026;2023-07-16T03:33:32;4.53;;;2.78;;
30149;SDS011;16962;48.646;9.026;2023-07-16T03:36:20;9.35;;;2.35;;
30149;SDS011;16962;48.646;9.026;2023-07-16T03:39:07;4.95;;;2.42;;
30149;SDS011;16962;48.646;9.026;2023-07-16T03:41:54;4.35;;;2.17;;
30149;SDS011;16962;48.646;9.026;2023-07-16T03:44:41;7.00;;;2.15;;
30149;SDS011;16962;48.646;9.026;2023-07-16T03:47:29;4.63;;;2.10;;
30149;SDS011;16962;48.646;9.026;2023-07-16T03:50:16;6.20;;;2.35;;
30149;SDS011;16962;48.646;9.026;2023-07-16T03:53:04;4.30;;;2.30;;
30149;SDS011;16962;48.646;9.026;2023-07-16T03:55:59;4.25;;;2.00;;
30149;SDS011;16962;48.646;9.026;2023-07-16T03:58:46;5.63;;;2.10;;
30149;SDS011;16962;48.646;9.026;2023-07-16T04:05:16;2.00;;;1.80;;
30149;SDS011;16962;48.646;9.026;2023-07-16T04:08:03;7.43;;;1.73;;
30149;SDS011;16962;48.646;9.026;2023-07-16T04:10:56;5.00;;;1.95;;
30149;SDS011;16962;48.646;9.026;2023-07-16T04:13:44;3.13;;;2.08;;
30149;SDS011;16962;48.646;9.026;2023-07-16T04:16:32;5.53;;;1.75;;
30149;SDS011;16962;48.646;9.026;2023-07-16T04:19:19;2.85;;;1.67;;
30149;SDS011;16962;48.646;9.026;2023-07-16T04:22:06;2.42;;;1.85;;
30149;SDS011;16962;48.646;9.026;2023-07-16T04:25:00;4.20;;;2.73;;
30149;SDS011;16962;48.646;9.026;2023-07-16T04:27:48;5.82;;;2.50;;
30149;SDS011;16962;48.646;9.026;2023-07-16T04:30:35;9.75;;;2.50;;
30149;SDS011;16962;48.646;9.026;2023-07-16T04:33:25;4.93;;;2.13;;
30149;SDS011;16962;48.646;9.026;2023-07-16T04:36:15;9.52;;;2.63;;
30149;SDS011;16962;48.646;9.026;2023-07-16T04:39:03;4.50;;;2.35;;
30149;SDS011;16962;48.646;9.026;2023-07-16T04:41:52;8.98;;;2.55;;
30149;SDS011;16962;48.646;9.026;2023-07-16T04:44:40;8.27;;;2.35;;
30149;SDS011;16962;48.646;9.026;2023-07-16T04:47:27;9.27;;;3.15;;
30149;SDS011;16962;48.646;9.026;2023-07-16T04:50:15;11.38;;;2.83;;
30149;SDS011;16962;48.646;9.026;2023-07-16T04:53:02;11.45;;;2.88;;
30149;SDS011;16962;48.646;9.026;2023-07-16T04:55:49;8.02;;;2.85;;
30149;SDS011;16962;48.646;9.026;2023-07-16T04:58:36;10.93;;;3.53;;
30149;SDS011;16962;48.646;9.026;2023-07-16T05:01:24;15.43;;;2.70;;
30149;SDS011;16962;48.646;9.026;2023-07-16T05:04:12;11.70;;;3.28;;
30149;SDS011;16962;48.646;9.026;2023-07-16T05:07:00;8.30;;;2.88;;
30149;SDS011;16962;48.646;9.026;2023-07-16T05:09:49;6.47;;;2.38;;
30149;SDS011;16962;48.646;9.026;2023-07-16T05:12:36;9.85;;;2.75;;
30149;SDS011;16962;48.646;9.026;2023-07-16T05:15:23;12.88;;;2.70;;
30149;SDS011;16962;48.646;9.026;2023-07-16T05:18:10;8.55;;;2.95;;
30149;SDS011;16962;48.646;9.026;2023-07-16T05:20:58;13.15;;;2.63;;
30149;SDS011;16962;48.646;9.026;2023-07-16T05:23:47;8.88;;;2.75;;
30149;SDS011;16962;48.646;9.026;2023-07-16T05:26:37;7.28;;;2.53;;
30149;SDS011;16962;48.646;9.026;2023-07-16T05:29:27;9.63;;;2.55;;
30149;SDS011;16962;48.646;9.026;2023-07-16T05:32:14;7.78;;;2.70;;
30149;SDS011;16962;48.646;9.026;2023-07-16T05:35:02;10.18;;;2.30;;
30149;SDS011;16962;48.646;9.026;2023-07-16T05:37:49;11.55;;;2.50;;
30149;SDS011;16962;48.646;9.026;2023-07-16T05:40:39;8.40;;;2.20;;
30149;SDS011;16962;48.646;9.026;2023-07-16T05:43:28;10.15;;;2.72;;
30149;SDS011;16962;48.646;9.026;2023-07-16T05:46:18;8.07;;;2.33;;
30149;SDS011;16962;48.646;9.026;2023-07-16T05:49:08;8.63;;;2.58;;
30149;SDS011;16962;48.646;9.026;2023-07-16T05:51:55;8.18;;;2.50;;
30149;SDS011;16962;48.646;9.026;2023-07-16T05:54:43;7.70;;;2.40;;
30149;SDS011;16962;48.646;9.026;2023-07-16T05:57:31;6.60;;;2.22;;
30149;SDS011;16962;48.646;9.026;2023-07-16T06:00:18;7.60;;;2.10;;
30149;SDS011;16962;48.646;9.026;2023-07-16T06:03:08;6.22;;;2.28;;
30149;SDS011;16962;48.646;9.026;2023-07-16T06:05:56;7.90;;;2.10;;
30149;SDS011;16962;48.646;9.026;2023-07-16T06:08:45;7.38;;;2.47;;
30149;SDS011;16962;48.646;9.026;2023-07-16T06:11:33;8.02;;;2.45;;
30149;SDS011;16962;48.646;9.026;2023-07-16T06:14:20;4.53;;;2.30;;
30149;SDS011;16962;48.646;9.026;2023-07-16T06:17:07;7.13;;;2.95;;
30149;SDS011;16962;48.646;9.026;2023-07-16T06:20:07;5.20;;;2.35;;
30149;SDS011;16962;48.646;9.026;2023-07-16T06:22:58;6.90;;;2.42;;
30149;SDS011;16962;48.646;9.026;2023-07-16T06:25:45;7.78;;;2.33;;
30149;SDS011;16962;48.646;9.026;2023-07-16T06:28:37;9.43;;;2.50;;
30149;SDS011;16962;48.646;9.026;2023-07-16T06:31:24;8.88;;;2.42;;
30149;SDS011;16962;48.646;9.026;2023-07-16T06:34:12;7.53;;;2.33;;
30149;SDS011;16962;48.646;9.026;2023-07-16T06:36:59;5.55;;;2.15;;
30149;SDS011;16962;48.646;9.026;2023-07-16T06:39:47;8.13;;;2.00;;
30149;SDS011;16962;48.646;9.026;2023-07-16T06:42:34;7.15;;;2.13;;
30149;SDS011;16962;48.646;9.026;2023-07-16T06:45:25;9.60;;;2.42;;
30149;SDS011;16962;48.646;9.026;2023-07-16T06:48:12;5.38;;;1.90;;
30149;SDS011;16962;48.646;9.026;2023-07-16T06:50:59;5.95;;;2.13;;
30149;SDS011;16962;48.646;9.026;2023-07-16T06:53:47;8.18;;;2.50;;
30149;SDS011;16962;48.646;9.026;2023-07-16T06:56:34;4.32;;;1.95;;
30149;SDS011;16962;48.646;9.026;2023-07-16T06:59:21;5.20;;;1.95;;
30149;SDS011;16962;48.646;9.026;2023-07-16T07:02:08;6.63;;;1.95;;
30149;SDS011;16962;48.646;9.026;2023-07-16T07:04:56;4.72;;;1.50;;
30149;SDS011;16962;48.646;9.026;2023-07-16T07:07:43;9.30;;;1.92;;
30149;SDS011;16962;48.646;9.026;2023-07-16T07:10:31;7.32;;;1.92;;
30149;SDS011;16962;48.646;9.026;2023-07-16T07:13:19;5.97;;;1.80;;
30149;SDS011;16962;48.646;9.026;2023-07-16T07:16:09;8.90;;;1.90;;
30149;SDS011;16962;48.646;9.026;2023-07-16T07:19:02;6.10;;;2.25;;
30149;SDS011;16962;48.646;9.026;2023-07-16T07:21:51;8.50;;;2.55;;
30149;SDS011;16962;48.646;9.026;2023-07-16T07:24:44;5.55;;;1.80;;
30149;SDS011;16962;48.646;9.026;2023-07-16T07:27:32;7.55;;;1.85;;
30149;SDS011;16962;48.646;9.026;2023-07-16T07:30:19;3.45;;;1.60;;
30149;SDS011;16962;48.646;9.026;2023-07-16T07:33:06;6.75;;;2.03;;
30149;SDS011;16962;48.646;9.026;2023-07-16T07:36:03;5.22;;;2.05;;
30149;SDS011;16962;48.646;9.026;2023-07-16T07:38:52;6.55;;;2.08;;
30149;SDS011;16962;48.646;9.026;2023-07-16T07:47:12;5.43;;;1.48;;
30149;SDS011;16962;48.646;9.026;2023-07-16T07:50:02;4.68;;;1.73;;
30149;SDS011;16962;48.646;9.026;2023-07-16T07:52:49;5.45;;;2.03;;
30149;SDS011;16962;48.646;9.026;2023-07-16T07:55:36;7.13;;;2.05;;
30149;SDS011;16962;48.646;9.026;2023-07-16T07:58:24;8.80;;;2.33;;
30149;SDS011;16962;48.646;9.026;2023-07-16T08:01:11;6.43;;;1.95;;
30149;SDS011;16962;48.646;9.026;2023-07-16T08:03:58;7.63;;;2.67;;
30149;SDS011;16962;48.646;9.026;2023-07-16T08:06:46;7.07;;;2.03;;
30149;SDS011;16962;48.646;9.026;2023-07-16T08:09:37;4.63;;;1.60;;
30149;SDS011;16962;48.646;9.026;2023-07-16T08:12:24;3.47;;;1.80;;
30149;SDS011;16962;48.646;9.026;2023-07-16T08:15:12;3.28;;;1.40;;
30149;SDS011;16962;48.646;9.026;2023-07-16T08:18:01;7.00;;;1.60;;
30149;SDS011;16962;48.646;9.026;2023-07-16T08:20:51;5.07;;;1.80;;
30149;SDS011;16962;48.646;9.026;2023-07-16T08:23:38;4.57;;;1.63;;
30149;SDS011;16962;48.646;9.026;2023-07-16T08:26:31;3.83;;;1.67;;
30149;SDS011;16962;48.646;9.026;2023-07-16T08:29:18;4.75;;;1.80;;
30149;SDS011;16962;48.646;9.026;2023-07-16T08:32:05;6.13;;;1.50;;
30149;SDS011;16962;48.646;9.026;2023-07-16T08:34:53;5.03;;;1.40;;
30149;SDS011;16962;48.646;9.026;2023-07-16T08:37:40;5.07;;;1.70;;
30149;SDS011;16962;48.646;9.026;2023-07-16T08:40:27;6.47;;;2.00;;
30149;SDS011;16962;48.646;9.026;2023-07-16T08:43:14;6.10;;;1.40;;
30149;SDS011;16962;48.646;9.026;2023-07-16T08:46:05;5.43;;;2.08;;
30149;SDS011;16962;48.646;9.026;2023-07-16T08:48:58;4.00;;;2.13;;
30149;SDS011;16962;48.646;9.026;2023-07-16T08:51:49;4.13;;;1.63;;
30149;SDS011;16962;48.646;9.026;2023-07-16T08:54:36;5.07;;;1.77;;
30149;SDS011;16962;48.646;9.026;2023-07-16T08:57:26;3.92;;;1.40;;
30149;SDS011;16962;48.646;9.026;2023-07-16T09:00:16;2.58;;;1.40;;
30149;SDS011;16962;48.646;9.026;2023-07-16T09:03:05;5.40;;;1.58;;
30149;SDS011;16962;48.646;9.026;2023-07-16T09:05:57;3.17;;;1.30;;
30149;SDS011;16962;48.646;9.026;2023-07-16T09:08:46;3.08;;;1.30;;
30149;SDS011;16962;48.646;9.026;2023-07-16T09:11:33;2.95;;;1.40;;
30149;SDS011;16962;48.646;9.026;2023-07-16T09:14:21;3.88;;;1.40;;
30149;SDS011;16962;48.646;9.026;2023-07-16T09:17:08;3.63;;;1.55;;
30149;SDS011;16962;48.646;9.026;2023-07-16T09:20:01;3.42;;;1.40;;
30149;SDS011;16962;48.646;9.026;2023-07-16T09:22:49;4.97;;;1.80;;
30149;SDS011;16962;48.646;9.026;2023-07-16T09:25:37;4.00;;;1.60;;
30149;SDS011;16962;48.646;9.026;2023-07-16T09:28:26;4.90;;;1.42;;
30149;SDS011;16962;48.646;9.026;2023-07-16T09:31:14;6.60;;;1.70;;
30149;SDS011;16962;48.646;9.026;2023-07-16T09:34:01;3.63;;;1.98;;
30149;SDS011;16962;48.646;9.026;2023-07-16T09:36:49;5.68;;;1.85;;
30149;SDS011;16962;48.646;9.026;2023-07-16T09:39:37;3.60;;;1.48;;
30149;SDS011;16962;48.646;9.026;2023-07-16T09:42:28;7.47;;;1.70;;
30149;SDS011;16962;48.646;9.026;2023-07-16T09:45:19;3.72;;;1.67;;
30149;SDS011;16962;48.646;9.026;2023-07-16T09:48:06;3.15;;;1.25;;
30149;SDS011;16962;48.646;9.026;2023-07-16T09:50:53;6.60;;;1.73;;
30149;SDS011;16962;48.646;9.026;2023-07-16T09:53:47;4.10;;;1.60;;
30149;SDS011;16962;48.646;9.026;2023-07-16T09:56:57;2.93;;;1.30;;
30149;SDS011;16962;48.646;9.026;2023-07-16T09:59:46;3.25;;;1.50;;
30149;SDS011;16962;48.646;9.026;2023-07-16T10:02:38;2.50;;;1.45;;
30149;SDS011;16962;48.646;9.026;2023-07-16T10:05:27;5.13;;;1.65;;
30149;SDS011;16962;48.646;9.026;2023-07-16T10:08:19;6.35;;;2.33;;
30149;SDS011;16962;48.646;9.026;2023-07-16T10:11:15;4.10;;;1.70;;
30149;SDS011;16962;48.646;9.026;2023-07-16T10:14:03;7.85;;;2.55;;
30149;SDS011;16962;48.646;9.026;2023-07-16T10:16:51;6.47;;;1.98;;
30149;SDS011;16962;48.646;9.026;2023-07-16T10:19:51;4.18;;;1.75;;
30149;SDS011;16962;48.646;9.026;2023-07-16T10:25:26;4.30;;;1.92;;
30149;SDS011;16962;48.646;9.026;2023-07-16T10:28:16;4.32;;;1.48;;
30149;SDS011;16962;48.646;9.026;2023-07-16T10:31:03;4.68;;;1.65;;
30149;SDS011;16962;48.646;9.026;2023-07-16T10:33:58;4.90;;;1.83;;
30149;SDS011;16962;48.646;9.026;2023-07-16T10:36:51;3.50;;;1.70;;
30149;SDS011;16962;48.646;9.026;2023-07-16T10:39:45;4.18;;;1.63;;
30149;SDS011;16962;48.646;9.026;2023-07-16T10:42:36;5.63;;;1.83;;
30149;SDS011;16962;48.646;9.026;2023-07-16T10:45:26;3.17;;;1.75;;
30149;SDS011;16962;48.646;9.026;2023-07-16T10:48:18;3.22;;;1.60;;
30149;SDS011;16962;48.646;9.026;2023-07-16T10:51:15;3.17;;;1.33;;
30149;SDS011;16962;48.646;9.026;2023-07-16T10:54:03;3.33;;;1.58;;
30149;SDS011;16962;48.646;9.026;2023-07-16T10:56:53;3.88;;;1.80;;
30149;SDS011;16962;48.646;9.026;2023-07-16T10:59:43;3.90;;;1.83;;
30149;SDS011;16962;48.646;9.026;2023-07-16T11:02:32;9.15;;;1.77;;
30149;SDS011;16962;48.646;9.026;2023-07-16T11:05:19;4.25;;;1.77;;
30149;SDS011;16962;48.646;9.026;2023-07-16T11:08:24;1.92;;;1.30;;
30149;SDS011;16962;48.646;9.026;2023-07-16T11:11:27;3.92;;;2.00;;
30149;SDS011;16962;48.646;9.026;2023-07-16T11:14:17;2.70;;;1.60;;
30149;SDS011;16962;48.646;9.026;2023-07-16T11:17:08;3.88;;;1.63;;
30149;SDS011;16962;48.646;9.026;2023-07-16T11:19:55;2.10;;;1.30;;
30149;SDS011;16962;48.646;9.026;2023-07-16T11:22:42;2.70;;;1.40;;
30149;SDS011;16962;48.646;9.026;2023-07-16T11:25:30;2.13;;;1.27;;
30149;SDS011;16962;48.646;9.026;2023-07-16T11:28:17;3.60;;;1.58;;
30149;SDS011;16962;48.646;9.026;2023-07-16T11:31:14;3.75;;;1.33;;
30149;SDS011;16962;48.646;9.026;2023-07-16T11:34:02;6.00;;;1.85;;
30149;SDS011;16962;48.646;9.026;2023-07-16T11:36:50;3.67;;;1.90;;
30149;SDS011;16962;48.646;9.026;2023-07-16T11:39:37;3.40;;;1.48;;
30149;SDS011;16962;48.646;9.026;2023-07-16T11:42:27;3.97;;;1.83;;
30149;SDS011;16962;48.646;9.026;2023-07-16T11:45:20;5.38;;;1.90;;
30149;SDS011;16962;48.646;9.026;2023-07-16T11:48:15;7.85;;;1.83;;
30149;SDS011;16962;48.646;9.026;2023-07-16T11:51:02;3.15;;;1.48;;
30149;SDS011;16962;48.646;9.026;2023-07-16T11:53:52;5.80;;;1.73;;
30149;SDS011;16962;48.646;9.026;2023-07-16T11:56:40;2.33;;;1.27;;
30149;SDS011;16962;48.646;9.026;2023-07-16T11:59:33;3.60;;;1.70;;
30149;SDS011;16962;48.646;9.026;2023-07-16T12:02:20;4.90;;;1.67;;
30149;SDS011;16962;48.646;9.026;2023-07-16T12:05:08;3.53;;;1.58;;
30149;SDS011;16962;48.646;9.026;2023-07-16T12:07:59;2.83;;;1.42;;
30149;SDS011;16962;48.646;9.026;2023-07-16T12:10:46;5.13;;;1.48;;
30149;SDS011;16962;48.646;9.026;2023-07-16T12:13:33;2.05;;;1.20;;
30149;SDS011;16962;48.646;9.026;2023-07-16T12:16:21;3.63;;;1.45;;
30149;SDS011;16962;48.646;9.026;2023-07-16T12:19:08;2.83;;;1.40;;
30149;SDS011;16962;48.646;9.026;2023-07-16T12:21:59;2.88;;;1.17;;
30149;SDS011;16962;48.646;9.026;2023-07-16T12:24:49;3.38;;;1.80;;
30149;SDS011;16962;48.646;9.026;2023-07-16T12:27:37;2.55;;;1.20;;
30149;SDS011;16962;48.646;9.026;2023-07-16T12:30:26;3.22;;;1.55;;
30149;SDS011;16962;48.646;9.026;2023-07-16T12:33:14;2.47;;;1.40;;
30149;SDS011;16962;48.646;9.026;2023-07-16T12:36:01;3.63;;;1.65;;
30149;SDS011;16962;48.646;9.026;2023-07-16T12:38:48;3.47;;;1.63;;
30149;SDS011;16962;48.646;9.026;2023-07-16T12:41:35;2.25;;;1.48;;
30149;SDS011;16962;48.646;9.026;2023-07-16T12:44:23;3.90;;;1.60;;
30149;SDS011;16962;48.646;9.026;2023-07-16T12:47:10;1.95;;;1.40;;
30149;SDS011;16962;48.646;9.026;2023-07-16T12:49:57;7.40;;;1.70;;
30149;SDS011;16962;48.646;9.026;2023-07-16T12:52:45;3.70;;;1.67;;
30149;SDS011;16962;48.646;9.026;2023-07-16T12:55:32;2.97;;;1.60;;
30149;SDS011;16962;48.646;9.026;2023-07-16T12:58:20;3.20;;;1.58;;
30149;SDS011;16962;48.646;9.026;2023-07-16T13:01:08;3.22;;;1.40;;
30149;SDS011;16962;48.646;9.026;2023-07-16T13:03:58;3.35;;;1.10;;
30149;SDS011;16962;48.646;9.026;2023-07-16T13:06:46;1.95;;;1.20;;
30149;SDS011;16962;48.646;9.026;2023-07-16T13:09:35;4.60;;;1.40;;
30149;SDS011;16962;48.646;9.026;2023-07-16T13:12:22;3.35;;;1.42;;
30149;SDS011;16962;48.646;9.026;2023-07-16T13:15:12;3.83;;;1.38;;
30149;SDS011;16962;48.646;9.026;2023-07-16T13:18:02;3.20;;;1.60;;
30149;SDS011;16962;48.646;9.026;2023-07-16T13:20:49;5.47;;;1.58;;
30149;SDS011;16962;48.646;9.026;2023-07-16T13:23:37;3.50;;;1.80;;
30149;SDS011;16962;48.646;9.026;2023-07-16T13:26:27;3.80;;;1.45;;
30149;SDS011;16962;48.646;9.026;2023-07-16T13:29:16;4.40;;;1.58;;
30149;SDS011;16962;48.646;9.026;2023-07-16T13:32:04;4.35;;;1.77;;
30149;SDS011;16962;48.646;9.026;2023-07-16T13:34:53;4.25;;;1.70;;
30149;SDS011;16962;48.646;9.026;2023-07-16T13:37:43;4.18;;;1.80;;
30149;SDS011;16962;48.646;9.026;2023-07-16T13:40:32;2.50;;;1.30;;
30149;SDS011;16962;48.646;9.026;2023-07-16T13:43:22;4.55;;;1.92;;
30149;SDS011;16962;48.646;9.026;2023-07-16T13:46:09;3.25;;;1.58;;
30149;SDS011;16962;48.646;9.026;2023-07-16T13:48:59;3.28;;;1.70;;
30149;SDS011;16962;48.646;9.026;2023-07-16T13:51:47;3.30;;;1.83;;
30149;SDS011;16962;48.646;9.026;2023-07-16T13:54:34;2.50;;;1.65;;
30149;SDS011;16962;48.646;9.026;2023-07-16T13:57:27;5.07;;;1.58;;
30149;SDS011;16962;48.646;9.026;2023-07-16T14:00:14;4.63;;;1.70;;
30149;SDS011;16962;48.646;9.026;2023-07-16T14:03:02;5.63;;;1.80;;
30149;SDS011;16962;48.646;9.026;2023-07-16T14:05:51;3.03;;;1.58;;
30149;SDS011;16962;48.646;9.026;2023-07-16T14:08:38;8.38;;;4.28;;
30149;SDS011;16962;48.646;9.026;2023-07-16T14:11:25;2.67;;;1.60;;
30149;SDS011;16962;48.646;9.026;2023-07-16T14:14:13;1.92;;;1.45;;
30149;SDS011;16962;48.646;9.026;2023-07-16T14:17:02;2.85;;;1.55;;
30149;SDS011;16962;48.646;9.026;2023-07-16T14:19:49;4.75;;;1.90;;
30149;SDS011;16962;48.646;9.026;2023-07-16T14:22:37;5.40;;;1.65;;
30149;SDS011;16962;48.646;9.026;2023-07-16T14:25:29;4.32;;;1.60;;
30149;SDS011;16962;48.646;9.026;2023-07-16T14:28:16;4.15;;;1.90;;
30149;SDS011;16962;48.646;9.026;2023-07-16T14:31:03;6.97;;;1.70;;
30149;SDS011;16962;48.646;9.026;2023-07-16T14:33:51;6.90;;;1.75;;
30149;SDS011;16962;48.646;9.026;2023-07-16T14:36:40;4.07;;;1.73;;
30149;SDS011;16962;48.646;9.026;2023-07-16T14:39:27;4.25;;;1.65;;
30149;SDS011;16962;48.646;9.026;2023-07-16T14:42:15;4.03;;;1.55;;
30149;SDS011;16962;48.646;9.026;2023-07-16T14:45:05;4.95;;;1.90;;
30149;SDS011;16962;48.646;9.026;2023-07-16T14:47:57;1.75;;;1.45;;
30149;SDS011;16962;48.646;9.026;2023-07-16T14:50:44;5.20;;;2.95;;
30149;SDS011;16962;48.646;9.026;2023-07-16T14:53:36;4.80;;;1.63;;
30149;SDS011;16962;48.646;9.026;2023-07-16T14:56:23;5.05;;;1.67;;
30149;SDS011;16962;48.646;9.026;2023-07-16T14:59:12;3.17;;;1.70;;
30149;SDS011;16962;48.646;9.026;2023-07-16T15:01:59;3.20;;;1.77;;
30149;SDS011;16962;48.646;9.026;2023-07-16T15:04:47;3.28;;;1.80;;
30149;SDS011;16962;48.646;9.026;2023-07-16T15:07:35;3.28;;;1.80;;
30149;SDS011;16962;48.646;9.026;2023-07-16T15:10:23;3.67;;;2.10;;
30149;SDS011;16962;48.646;9.026;2023-07-16T15:13:10;4.72;;;1.63;;
30149;SDS011;16962;48.646;9.026;2023-07-16T15:15:59;6.20;;;1.52;;
30149;SDS011;16962;48.646;9.026;2023-07-16T15:18:46;2.75;;;1.33;;
30149;SDS011;16962;48.646;9.026;2023-07-16T15:21:34;2.53;;;1.50;;
30149;SDS011;16962;48.646;9.026;2023-07-16T15:24:25;3.38;;;1.90;;
30149;SDS011;16962;48.646;9.026;2023-07-16T15:27:17;3.47;;;1.67;;
30149;SDS011;16962;48.646;9.026;2023-07-16T15:30:05;2.67;;;1.38;;
30149;SDS011;16962;48.646;9.026;2023-07-16T15:32:53;3.33;;;1.20;;
30149;SDS011;16962;48.646;9.026;2023-07-16T15:35:40;4.13;;;1.70;;
30149;SDS011;16962;48.646;9.026;2023-07-16T15:38:28;4.43;;;1.63;;
30149;SDS011;16962;48.646;9.026;2023-07-16T15:41:16;5.18;;;1.70;;
30149;SDS011;16962;48.646;9.026;2023-07-16T15:44:06;3.20;;;1.55;;
30149;SDS011;16962;48.646;9.026;2023-07-16T15:46:54;3.40;;;1.65;;
30149;SDS011;16962;48.646;9.026;2023-07-16T15:49:41;5.20;;;2.10;;
30149;SDS011;16962;48.646;9.026;2023-07-16T15:52:29;6.63;;;2.08;;
30149;SDS011;16962;48.646;9.026;2023-07-16T15:55:16;3.53;;;1.52;;
30149;SDS011;16962;48.646;9.026;2023-07-16T15:58:08;2.75;;;1.60;;
30149;SDS011;16962;48.646;9.026;2023-07-16T16:00:58;3.25;;;2.08;;
30149;SDS011;16962;48.646;9.026;2023-07-16T16:03:46;4.15;;;1.80;;
30149;SDS011;16962;48.646;9.026;2023-07-16T16:06:37;3.92;;;1.55;;
30149;SDS011;16962;48.646;9.026;2023-07-16T16:09:25;4.65;;;1.70;;
30149;SDS011;16962;48.646;9.026;2023-07-16T16:12:13;2.50;;;1.48;;
30149;SDS011;16962;48.646;9.026;2023-07-16T16:15:00;2.45;;;1.42;;
30149;SDS011;16962;48.646;9.026;2023-07-16T16:17:53;3.10;;;1.48;;
30149;SDS011;16962;48.646;9.026;2023-07-16T16:20:43;3.20;;;1.85;;
30149;SDS011;16962;48.646;9.026;2023-07-16T16:23:31;4.13;;;1.70;;
30149;SDS011;16962;48.646;9.026;2023-07-16T16:26:21;3.42;;;2.17;;
30149;SDS011;16962;48.646;9.026;2023-07-16T16:29:10;5.25;;;2.30;;
30149;SDS011;16962;48.646;9.026;2023-07-16T16:31:57;5.18;;;2.25;;
30149;SDS011;16962;48.646;9.026;2023-07-16T16:34:47;4.50;;;1.80;;
30149;SDS011;16962;48.646;9.026;2023-07-16T16:37:37;5.38;;;1.88;;
30149;SDS011;16962;48.646;9.026;2023-07-16T16:40:24;4.65;;;2.03;;
30149;SDS011;16962;48.646;9.026;2023-07-16T16:43:12;3.08;;;1.60;;
30149;SDS011;16962;48.646;9.026;2023-07-16T16:45:59;4.40;;;1.60;;
30149;SDS011;16962;48.646;9.026;2023-07-16T16:48:52;2.22;;;1.45;;
30149;SDS011;16962;48.646;9.026;2023-07-16T16:51:39;2.75;;;1.98;;
30149;SDS011;16962;48.646;9.026;2023-07-16T16:54:29;5.05;;;2.00;;
30149;SDS011;16962;48.646;9.026;2023-07-16T16:57:18;4.18;;;2.20;;
30149;SDS011;16962;48.646;9.026;2023-07-16T17:00:06;3.13;;;1.65;;
30149;SDS011;16962;48.646;9.026;2023-07-16T17:03:00;5.45;;;2.25;;
30149;SDS011;16962;48.646;9.026;2023-07-16T17:05:48;2.45;;;1.65;;
30149;SDS011;16962;48.646;9.026;2023-07-16T17:08:36;4.05;;;1.75;;
30149;SDS011;16962;48.646;9.026;2023-07-16T17:11:23;2.97;;;1.98;;
30149;SDS011;16962;48.646;9.026;2023-07-16T17:14:12;4.13;;;1.50;;
30149;SDS011;16962;48.646;9.026;2023-07-16T17:17:03;5.13;;;1.90;;
30149;SDS011;16962;48.646;9.026;2023-07-16T17:19:53;4.90;;;2.20;;